createdAt,value
2022-10-17T00:00:13.968Z,4.65
2022-10-17T00:02:43.296Z,4.03
2022-10-17T00:05:13.307Z,5.25
2022-10-17T00:07:42.633Z,3.75
2022-10-17T00:10:13.450Z,6.00
2022-10-17T00:12:42.900Z,4.35
2022-10-17T00:15:17.470Z,4.78
2022-10-17T00:17:47.026Z,6.65
2022-10-17T00:20:17.279Z,4.38
2022-10-17T00:22:46.724Z,9.55
2022-10-17T00:25:17.688Z,4.88
2022-10-17T00:27:47.596Z,5.22
2022-10-17T00:30:18.450Z,4.15
2022-10-17T00:32:47.817Z,8.65
2022-10-17T00:35:17.291Z,4.57
2022-10-17T00:37:46.616Z,4.32
2022-10-17T00:40:17.452Z,5.30
2022-10-17T00:42:46.855Z,5.95
2022-10-17T00:45:22.495Z,4.90
2022-10-17T00:47:56.384Z,5.05
2022-10-17T00:51:39.007Z,6.05
2022-10-17T00:54:10.290Z,8.68
2022-10-17T00:56:40.696Z,8.68
2022-10-17T00:59:13.615Z,8.43
2022-10-17T01:01:46.378Z,8.15
2022-10-17T01:04:15.944Z,9.43
2022-10-17T01:06:46.720Z,6.53
2022-10-17T01:09:16.124Z,10.40
2022-10-17T01:11:54.052Z,12.15
2022-10-17T01:14:33.230Z,7.43
2022-10-17T01:17:15.028Z,11.95
2022-10-17T01:20:18.798Z,11.77
2022-10-17T01:23:05.358Z,14.75
2022-10-17T01:25:51.849Z,9.63
2022-10-17T01:31:16.332Z,8.25
2022-10-17T01:33:56.517Z,8.10
2022-10-17T01:36:39.313Z,7.90
2022-10-17T01:39:18.629Z,8.55
2022-10-17T01:41:57.626Z,11.13
2022-10-17T01:44:36.694Z,7.82
2022-10-17T01:47:11.790Z,6.90
2022-10-17T01:49:45.347Z,6.50
2022-10-17T01:52:20.065Z,7.25
2022-10-17T01:54:54.478Z,8.02
2022-10-17T01:57:32.485Z,6.88
2022-10-17T02:00:06.217Z,6.72
2022-10-17T02:02:38.827Z,7.10
2022-10-17T02:05:09.795Z,5.60
2022-10-17T02:07:39.167Z,6.95
2022-10-17T02:10:15.654Z,6.65
2022-10-17T02:12:55.704Z,7.60
2022-10-17T02:15:48.709Z,7.20
2022-10-17T02:18:46.325Z,6.35
2022-10-17T02:21:22.249Z,8.43
2022-10-17T02:24:00.979Z,6.03
2022-10-17T02:26:35.570Z,7.18
2022-10-17T02:29:11.606Z,5.60
2022-10-17T02:31:47.274Z,7.00
2022-10-17T02:34:24.330Z,7.13
2022-10-17T02:36:59.452Z,6.15
2022-10-17T02:39:30.993Z,9.10
2022-10-17T02:42:03.877Z,7.00
2022-10-17T02:44:34.999Z,6.70
2022-10-17T02:47:12.885Z,9.25
2022-10-17T02:49:49.208Z,6.45
2022-10-17T02:52:24.174Z,6.40
2022-10-17T02:54:59.865Z,6.40
2022-10-17T02:57:37.658Z,6.95
2022-10-17T03:00:11.818Z,7.22
2022-10-17T03:02:43.125Z,6.10
2022-10-17T03:05:18.558Z,8.32
2022-10-17T03:07:48.052Z,8.32
2022-10-17T03:10:17.710Z,10.13
2022-10-17T03:12:47.295Z,14.55
2022-10-17T03:15:17.185Z,12.48
2022-10-17T03:20:22.084Z,10.63
2022-10-17T03:22:51.328Z,9.60
2022-10-17T03:25:20.855Z,7.90
2022-10-17T03:27:50.371Z,11.18
2022-10-17T03:30:19.754Z,8.75
2022-10-17T03:32:49.003Z,7.72
2022-10-17T03:35:18.590Z,10.20
2022-10-17T03:37:49.309Z,7.63
2022-10-17T03:40:18.937Z,14.18
2022-10-17T03:42:48.316Z,6.15
2022-10-17T03:45:17.797Z,7.50
2022-10-17T03:47:47.209Z,10.43
2022-10-17T03:52:34.275Z,27.30
2022-10-17T03:55:03.535Z,28.33
2022-10-17T03:57:33.001Z,25.55
2022-10-17T04:00:02.345Z,27.50
2022-10-17T04:02:31.754Z,19.10
2022-10-17T04:05:01.127Z,15.23
2022-10-17T04:07:30.772Z,12.73
2022-10-17T04:10:01.587Z,13.50
2022-10-17T04:12:31.418Z,14.07
2022-10-17T04:15:01.108Z,10.00
2022-10-17T04:17:37.222Z,9.98
2022-10-17T04:20:09.427Z,12.10
2022-10-17T04:22:38.853Z,12.65
2022-10-17T04:25:10.987Z,8.60
2022-10-17T04:27:40.251Z,9.70
2022-10-17T04:30:11.067Z,8.82
2022-10-17T04:32:40.892Z,9.50
2022-10-17T04:35:11.306Z,12.48
2022-10-17T04:37:40.626Z,14.88
2022-10-17T04:40:13.346Z,10.52
2022-10-17T04:42:42.753Z,7.97
2022-10-17T04:45:12.953Z,10.43
2022-10-17T04:47:42.287Z,12.98
2022-10-17T04:50:12.093Z,17.05
2022-10-17T04:52:41.466Z,23.35
2022-10-17T04:55:12.249Z,29.00
2022-10-17T04:57:41.642Z,19.60
2022-10-17T05:00:12.925Z,18.70
2022-10-17T05:02:42.279Z,33.65
2022-10-17T05:05:11.952Z,30.42
2022-10-17T05:07:42.590Z,38.17
2022-10-17T05:10:13.367Z,31.48
2022-10-17T05:12:42.871Z,31.98
2022-10-17T05:15:12.711Z,27.15
2022-10-17T05:17:42.008Z,27.13
2022-10-17T05:20:13.364Z,28.40
2022-10-17T05:22:42.829Z,30.25
2022-10-17T05:25:13.695Z,34.00
2022-10-17T05:27:43.066Z,28.50
2022-10-17T05:30:13.204Z,29.08
2022-10-17T05:32:42.622Z,23.42
2022-10-17T05:35:11.982Z,21.95
2022-10-17T05:37:41.465Z,20.77
2022-10-17T05:40:13.967Z,21.40
2022-10-17T05:42:48.908Z,30.35
2022-10-17T05:45:18.918Z,38.63
2022-10-17T05:47:48.240Z,29.20
2022-10-17T05:50:17.632Z,36.92
2022-10-17T05:52:47.335Z,28.08
2022-10-17T05:55:18.306Z,25.15
2022-10-17T05:57:47.729Z,21.70
2022-10-17T06:00:17.509Z,16.27
2022-10-17T06:02:47.250Z,13.55
2022-10-17T06:05:17.424Z,17.52
2022-10-17T06:07:46.754Z,12.63
2022-10-17T06:10:18.829Z,13.82
2022-10-17T06:12:48.268Z,8.10
2022-10-17T06:15:17.711Z,8.70
2022-10-17T06:17:47.309Z,8.38
2022-10-17T06:20:16.951Z,6.40
2022-10-17T06:22:46.441Z,8.18
2022-10-17T06:25:17.528Z,8.27
2022-10-17T06:27:46.882Z,9.18
2022-10-17T06:30:16.476Z,7.22
2022-10-17T06:32:45.791Z,7.90
2022-10-17T06:35:15.353Z,10.95
2022-10-17T06:37:45.225Z,8.48
2022-10-17T06:40:17.470Z,7.60
2022-10-17T06:42:46.851Z,14.32
2022-10-17T06:45:16.711Z,37.10
2022-10-17T06:47:46.155Z,27.23
2022-10-17T06:52:33.968Z,12.48
2022-10-17T06:57:37.533Z,14.10
2022-10-17T07:00:08.593Z,10.77
2022-10-17T07:02:37.885Z,9.05
2022-10-17T07:05:08.275Z,5.93
2022-10-17T07:07:43.037Z,6.00
2022-10-17T07:10:14.473Z,6.53
2022-10-17T07:12:44.986Z,5.75
2022-10-17T07:15:14.675Z,8.77
2022-10-17T07:17:44.067Z,5.97
2022-10-17T07:20:13.853Z,8.27
2022-10-17T07:22:44.773Z,6.50
2022-10-17T07:25:14.247Z,8.07
2022-10-17T07:27:43.461Z,7.68
2022-10-17T07:30:14.330Z,5.50
2022-10-17T07:32:44.993Z,5.72
2022-10-17T07:35:15.542Z,6.50
2022-10-17T07:37:46.293Z,6.32
2022-10-17T07:40:15.877Z,8.30
2022-10-17T07:42:45.270Z,6.57
2022-10-17T07:45:15.854Z,8.45
2022-10-17T07:47:45.586Z,7.40
2022-10-17T07:50:14.930Z,6.32
2022-10-17T07:52:45.844Z,6.18
2022-10-17T07:55:15.388Z,6.63
2022-10-17T07:57:44.746Z,6.50
2022-10-17T08:00:15.170Z,6.88
2022-10-17T08:02:45.165Z,6.78
2022-10-17T08:05:14.534Z,6.85
2022-10-17T08:07:45.360Z,6.78
2022-10-17T08:10:16.990Z,5.57
2022-10-17T08:12:46.393Z,7.82
2022-10-17T08:15:15.709Z,7.47
2022-10-17T08:17:45.188Z,5.47
2022-10-17T08:20:15.115Z,6.03
2022-10-17T08:22:48.708Z,5.65
2022-10-17T08:25:18.208Z,5.60
2022-10-17T08:27:47.655Z,7.47
2022-10-17T08:30:17.711Z,6.05
2022-10-17T08:32:46.990Z,5.80
2022-10-17T08:35:16.332Z,6.25
2022-10-17T08:37:47.115Z,5.03
2022-10-17T08:40:22.480Z,4.97
2022-10-17T08:43:21.447Z,8.05
2022-10-17T08:46:00.473Z,6.10
2022-10-17T08:48:33.396Z,5.47
2022-10-17T08:51:08.841Z,5.35
2022-10-17T08:53:48.221Z,6.60
2022-10-17T08:56:44.071Z,7.95
2022-10-17T08:59:15.544Z,5.95
2022-10-17T09:01:53.904Z,7.57
2022-10-17T09:04:56.495Z,7.75
2022-10-17T09:07:35.159Z,6.78
2022-10-17T09:10:18.905Z,6.43
2022-10-17T09:13:06.973Z,6.45
2022-10-17T09:16:09.125Z,6.90
2022-10-17T09:18:41.952Z,5.32
2022-10-17T09:21:22.774Z,7.22
2022-10-17T09:24:03.967Z,11.32
2022-10-17T09:26:43.021Z,6.60
2022-10-17T09:29:22.562Z,5.13
2022-10-17T09:32:02.036Z,7.75
2022-10-17T09:34:33.931Z,8.02
2022-10-17T09:37:07.727Z,7.63
2022-10-17T09:39:37.311Z,8.75
2022-10-17T09:42:08.168Z,9.77
2022-10-17T09:44:47.774Z,8.27
2022-10-17T09:47:31.409Z,5.38
2022-10-17T09:52:38.137Z,7.25
2022-10-17T09:55:18.749Z,6.30
2022-10-17T09:57:57.967Z,5.72
2022-10-17T10:00:31.036Z,8.93
2022-10-17T10:03:19.088Z,6.60
2022-10-17T10:06:03.969Z,6.07
2022-10-17T10:08:37.754Z,5.93
2022-10-17T10:11:13.860Z,7.53
2022-10-17T10:13:51.088Z,7.18
2022-10-17T10:16:25.620Z,7.55
2022-10-17T10:18:55.215Z,7.35
2022-10-17T10:21:26.903Z,7.38
2022-10-17T10:24:15.852Z,11.10
2022-10-17T10:26:49.593Z,8.23
2022-10-17T10:29:34.340Z,8.80
2022-10-17T10:32:13.912Z,6.35
2022-10-17T10:34:52.028Z,6.70
2022-10-17T10:37:24.308Z,7.05
2022-10-17T10:39:57.658Z,7.22
2022-10-17T10:42:31.515Z,6.53
2022-10-17T10:45:05.614Z,6.07
2022-10-17T10:47:35.634Z,9.50
2022-10-17T10:50:26.367Z,7.18
2022-10-17T10:53:13.381Z,7.55
2022-10-17T10:55:48.467Z,9.55
2022-10-17T10:58:32.713Z,7.03
2022-10-17T11:01:10.842Z,5.90
2022-10-17T11:03:53.053Z,6.18
2022-10-17T11:06:27.903Z,6.88
2022-10-17T11:09:19.967Z,7.35
2022-10-17T11:12:00.921Z,7.23
2022-10-17T11:14:43.460Z,7.28
2022-10-17T11:20:15.310Z,7.82
2022-10-17T11:22:49.553Z,7.93
2022-10-17T11:25:37.194Z,5.80
2022-10-17T11:28:16.554Z,5.90
2022-10-17T11:30:53.387Z,5.53
2022-10-17T11:33:32.850Z,6.43
2022-10-17T11:36:07.546Z,8.25
2022-10-17T11:38:49.251Z,7.13
2022-10-17T11:41:24.847Z,6.17
2022-10-17T11:44:00.820Z,8.38
2022-10-17T11:46:31.738Z,5.50
2022-10-17T11:49:16.124Z,7.32
2022-10-17T11:52:07.455Z,5.18
2022-10-17T11:54:43.167Z,5.93
2022-10-17T11:57:37.607Z,5.07
2022-10-17T12:00:39.319Z,5.85
2022-10-17T12:03:41.512Z,6.90
2022-10-17T12:06:22.932Z,6.55
2022-10-17T12:09:13.827Z,7.40
2022-10-17T12:11:54.254Z,6.93
2022-10-17T12:14:45.407Z,6.60
2022-10-17T12:17:35.143Z,5.90
2022-10-17T12:20:30.722Z,7.40
2022-10-17T12:23:20.222Z,6.78
2022-10-17T12:25:57.091Z,5.80
2022-10-17T12:28:33.499Z,6.47
2022-10-17T12:31:07.352Z,6.22
2022-10-17T12:33:51.627Z,5.18
2022-10-17T12:36:48.437Z,5.90
2022-10-17T12:39:51.872Z,4.75
2022-10-17T12:42:48.966Z,5.43
2022-10-17T12:45:53.151Z,4.50
2022-10-17T12:53:06.688Z,5.82
2022-10-17T12:55:36.010Z,5.90
2022-10-17T12:58:08.430Z,5.88
2022-10-17T13:03:42.052Z,6.88
2022-10-17T13:06:22.263Z,5.57
2022-10-17T13:09:03.509Z,7.07
2022-10-17T13:11:37.424Z,5.65
2022-10-17T13:14:15.391Z,5.43
2022-10-17T13:16:56.372Z,5.30
2022-10-17T13:19:30.892Z,9.50
2022-10-17T13:22:06.723Z,6.18
2022-10-17T13:24:40.294Z,7.57
2022-10-17T13:27:27.916Z,8.80
2022-10-17T13:29:59.154Z,5.90
2022-10-17T13:32:37.951Z,6.35
2022-10-17T13:35:10.210Z,6.30
2022-10-17T13:37:41.871Z,6.32
2022-10-17T13:43:18.180Z,6.78
2022-10-17T13:45:52.053Z,8.68
2022-10-17T13:48:25.171Z,10.30
2022-10-17T13:51:01.735Z,9.77
2022-10-17T13:53:35.531Z,6.90
2022-10-17T13:56:32.908Z,6.10
2022-10-17T13:59:23.244Z,8.10
2022-10-17T14:01:52.947Z,12.07
2022-10-17T14:04:22.290Z,13.77
2022-10-17T14:06:52.524Z,11.07
2022-10-17T14:09:26.493Z,6.93
2022-10-17T14:12:05.068Z,4.45
2022-10-17T14:14:58.120Z,5.88
2022-10-17T14:17:30.403Z,5.68
2022-10-17T14:20:40.450Z,5.22
2022-10-17T14:23:20.839Z,6.13
2022-10-17T14:25:43.900Z,5.13
2022-10-17T14:28:18.695Z,5.55
2022-10-17T14:30:56.647Z,6.50
2022-10-17T14:33:31.264Z,6.93
2022-10-17T14:36:06.484Z,5.68
2022-10-17T14:38:36.545Z,5.22
2022-10-17T14:44:25.267Z,4.55
2022-10-17T14:47:05.990Z,4.50
2022-10-17T14:49:43.365Z,4.97
2022-10-17T14:52:27.296Z,4.30
2022-10-17T14:54:57.993Z,7.10
2022-10-17T14:57:45.443Z,6.05
2022-10-17T15:00:20.878Z,5.38
2022-10-17T15:02:52.313Z,7.55
2022-10-17T15:05:23.291Z,8.75
2022-10-17T15:07:52.806Z,7.57
2022-10-17T15:10:35.084Z,5.70
2022-10-17T15:15:56.386Z,5.22
2022-10-17T15:18:25.689Z,5.22
2022-10-17T15:21:04.633Z,4.85
2022-10-17T15:23:34.494Z,6.18
2022-10-17T15:26:03.924Z,8.07
2022-10-17T15:28:33.255Z,9.32
2022-10-17T15:31:04.086Z,7.00
2022-10-17T15:33:33.405Z,8.15
2022-10-17T15:36:02.709Z,5.57
2022-10-17T15:38:32.011Z,7.32
2022-10-17T15:41:01.304Z,8.27
2022-10-17T15:43:30.667Z,8.80
2022-10-17T15:46:04.026Z,8.25
2022-10-17T15:48:34.471Z,18.27
2022-10-17T15:52:33.957Z,8.88
2022-10-17T15:55:05.374Z,10.43
2022-10-17T15:57:40.264Z,13.52
2022-10-17T16:00:17.911Z,14.30
2022-10-17T16:02:48.007Z,10.73
2022-10-17T16:05:19.737Z,13.18
2022-10-17T16:07:50.609Z,9.95
2022-10-17T16:10:20.985Z,12.75
2022-10-17T16:12:50.677Z,11.88
2022-10-17T16:15:23.749Z,8.93
2022-10-17T16:17:54.270Z,8.98
2022-10-17T16:20:25.635Z,8.13
2022-10-17T16:23:00.627Z,9.52
2022-10-17T16:25:31.811Z,9.55
2022-10-17T16:28:03.047Z,11.05
2022-10-17T16:30:33.915Z,7.15
2022-10-17T16:33:03.212Z,8.90
2022-10-17T16:35:36.576Z,13.02
2022-10-17T16:38:09.648Z,9.90
2022-10-17T16:40:41.466Z,7.57
2022-10-17T16:43:14.459Z,10.00
2022-10-17T16:45:43.920Z,12.07
2022-10-17T16:48:13.405Z,7.82
2022-10-17T16:50:43.143Z,8.05
2022-10-17T16:53:13.816Z,9.48
2022-10-17T16:55:43.307Z,8.38
2022-10-17T16:58:12.768Z,9.70
2022-10-17T17:00:42.210Z,7.43
2022-10-17T17:03:11.515Z,9.00
2022-10-17T17:05:41.048Z,8.02
2022-10-17T17:08:12.569Z,10.63
2022-10-17T17:10:49.589Z,8.52
2022-10-17T17:13:19.767Z,9.50
2022-10-17T17:15:53.757Z,8.63
2022-10-17T17:18:23.264Z,9.88
2022-10-17T17:20:52.488Z,8.85
2022-10-17T17:23:21.729Z,8.10
2022-10-17T17:25:57.671Z,9.45
2022-10-17T17:28:27.565Z,12.13
2022-10-17T17:30:57.668Z,14.70
2022-10-17T17:33:28.582Z,14.05
2022-10-17T17:35:59.004Z,12.77
2022-10-17T17:38:29.992Z,11.15
2022-10-17T17:41:00.865Z,11.57
2022-10-17T17:43:31.067Z,15.20
2022-10-17T17:46:03.687Z,12.32
2022-10-17T17:48:33.027Z,14.98
2022-10-17T17:51:06.045Z,13.20
2022-10-17T17:53:36.035Z,14.07
2022-10-17T17:56:10.252Z,12.93
2022-10-17T17:58:39.909Z,22.00
2022-10-17T18:01:15.066Z,10.45
2022-10-17T18:03:44.683Z,16.75
2022-10-17T18:06:14.590Z,14.45
2022-10-17T18:08:47.790Z,14.02
2022-10-17T18:11:21.247Z,14.23
2022-10-17T18:13:56.738Z,7.93
2022-10-17T18:16:26.848Z,10.93
2022-10-17T18:18:56.509Z,16.10
2022-10-17T18:21:25.992Z,14.00
2022-10-17T18:23:55.264Z,9.25
2022-10-17T18:26:26.043Z,13.90
2022-10-17T18:28:55.492Z,8.95
2022-10-17T18:31:28.709Z,9.70
2022-10-17T18:34:00.292Z,9.13
2022-10-17T18:36:31.343Z,9.95
2022-10-17T18:39:02.566Z,8.40
2022-10-17T18:41:34.767Z,7.00
2022-10-17T18:44:04.872Z,6.80
2022-10-17T18:46:40.767Z,7.82
2022-10-17T18:52:33.643Z,16.05
2022-10-17T18:55:02.987Z,11.40
2022-10-17T18:57:32.545Z,16.25
2022-10-17T19:00:02.047Z,13.57
2022-10-17T19:02:35.532Z,12.68
2022-10-17T19:05:08.108Z,10.60
2022-10-17T19:07:38.976Z,11.13
2022-10-17T19:10:09.303Z,10.85
2022-10-17T19:12:38.503Z,15.07
2022-10-17T19:15:09.188Z,11.00
2022-10-17T19:17:38.428Z,9.63
2022-10-17T19:20:09.790Z,10.73
2022-10-17T19:22:40.501Z,11.18
2022-10-17T19:25:11.012Z,14.93
2022-10-17T19:27:40.367Z,9.30
2022-10-17T19:30:12.829Z,10.93
2022-10-17T19:32:42.311Z,10.68
2022-10-17T19:35:12.636Z,7.95
2022-10-17T19:37:43.352Z,7.78
2022-10-17T19:40:14.589Z,6.28
2022-10-17T19:42:44.084Z,7.60
2022-10-17T19:45:13.574Z,7.30
2022-10-17T19:47:43.191Z,5.05
2022-10-17T19:50:12.726Z,7.32
2022-10-17T19:52:43.571Z,6.45
2022-10-17T19:55:13.052Z,7.10
2022-10-17T19:57:42.381Z,5.10
2022-10-17T20:00:13.350Z,7.25
2022-10-17T20:02:42.626Z,9.50
2022-10-17T20:05:18.641Z,10.90
2022-10-17T20:07:49.753Z,5.60
2022-10-17T20:10:19.927Z,4.70
2022-10-17T20:12:49.248Z,5.28
2022-10-17T20:15:18.848Z,5.85
2022-10-17T20:17:48.147Z,4.63
2022-10-17T20:20:17.649Z,4.07
2022-10-17T20:22:49.290Z,4.78
2022-10-17T20:25:19.131Z,6.97
2022-10-17T20:27:50.055Z,6.43
2022-10-17T20:30:19.536Z,5.07
2022-10-17T20:32:48.863Z,5.47
2022-10-17T20:35:18.324Z,5.10
2022-10-17T20:37:49.207Z,5.38
2022-10-17T20:40:35.707Z,4.15
2022-10-17T20:43:06.871Z,7.90
2022-10-17T20:45:50.596Z,4.63
2022-10-17T20:48:21.542Z,4.82
2022-10-17T20:50:51.648Z,6.75
2022-10-17T20:53:38.210Z,5.35
2022-10-17T20:56:10.224Z,3.97
2022-10-17T20:58:39.767Z,4.17
2022-10-17T21:01:10.569Z,3.58
2022-10-17T21:03:43.878Z,5.78
2022-10-17T21:06:18.331Z,6.05
2022-10-17T21:08:50.326Z,5.30
2022-10-17T21:11:21.909Z,5.93
2022-10-17T21:13:58.370Z,4.80
2022-10-17T21:16:28.898Z,5.68
2022-10-17T21:18:59.125Z,6.47
2022-10-17T21:21:31.266Z,6.25
2022-10-17T21:24:04.085Z,4.88
2022-10-17T21:29:06.044Z,5.47
2022-10-17T21:31:37.427Z,6.15
2022-10-17T21:34:10.085Z,7.00
2022-10-17T21:36:40.466Z,4.22
2022-10-17T21:39:12.633Z,6.30
2022-10-17T21:41:42.945Z,6.63
2022-10-17T21:44:16.244Z,8.10
2022-10-17T21:46:46.286Z,6.30
2022-10-17T21:52:33.757Z,6.47
2022-10-17T21:55:03.268Z,7.63
2022-10-17T21:57:32.548Z,7.38
2022-10-17T22:00:01.765Z,7.95
2022-10-17T22:02:31.684Z,4.90
2022-10-17T22:05:01.327Z,6.13
2022-10-17T22:07:30.549Z,5.45
2022-10-17T22:10:01.367Z,9.30
2022-10-17T22:12:30.966Z,4.57
2022-10-17T22:15:00.605Z,5.55
2022-10-17T22:17:30.354Z,6.85
2022-10-17T22:19:59.769Z,5.03
2022-10-17T22:22:29.044Z,5.03
2022-10-17T22:24:59.861Z,5.32
2022-10-17T22:27:29.489Z,4.78
2022-10-17T22:29:59.149Z,6.57
2022-10-17T22:32:28.421Z,5.82
2022-10-17T22:34:57.743Z,5.38
2022-10-17T22:37:26.979Z,5.22
2022-10-17T22:39:56.445Z,5.47
2022-10-17T22:42:31.714Z,6.47
2022-10-17T22:45:01.163Z,5.40
2022-10-17T22:47:31.958Z,5.75
2022-10-17T22:50:01.579Z,6.03
2022-10-17T22:52:31.253Z,7.93
2022-10-17T22:55:00.694Z,7.65
2022-10-17T22:57:31.628Z,7.25
2022-10-17T23:00:01.576Z,7.47
2022-10-17T23:02:31.133Z,5.95
2022-10-17T23:05:01.170Z,6.43
2022-10-17T23:07:30.847Z,5.70
2022-10-17T23:10:00.126Z,7.00
2022-10-17T23:12:31.088Z,7.45
2022-10-17T23:15:00.574Z,6.95
2022-10-17T23:17:29.847Z,8.13
2022-10-17T23:19:59.306Z,5.05
2022-10-17T23:22:28.923Z,8.45
2022-10-17T23:24:58.304Z,9.90
2022-10-17T23:27:27.573Z,15.52
2022-10-17T23:29:58.409Z,10.32
2022-10-17T23:32:28.147Z,10.13
2022-10-17T23:34:57.629Z,10.40
2022-10-17T23:37:27.182Z,8.85
2022-10-17T23:39:56.484Z,7.40
2022-10-17T23:42:26.087Z,7.03
2022-10-17T23:44:57.127Z,6.65
2022-10-17T23:47:26.654Z,7.28
2022-10-17T23:49:55.952Z,9.10
2022-10-17T23:52:25.586Z,8.70
2022-10-17T23:54:55.004Z,6.93
2022-10-17T23:57:24.766Z,8.00
2022-10-17T23:59:54.083Z,6.90
